Eads, CO (81036)

7:42 AM MDT on August 29, 2016 (GMT -0600)
Kit Carson | | Change Station

Elev 4301 ft 38.77 °N, 102.79 °W | Updated 6 seconds ago

Overcast
Overcast
63.4 °F
Feels Like 63.4 °F
N
7.2
Wind Variable Wind from ENE
Gusts 9.0 mph

Today
High -- | Low -- °F
--% Chance of Precip.
Yesterday
High -- | Low -- °F
Precip. -- in
Pressure 30.18 in
Visibility 10.0 miles
Clouds Overcast 1000 ft
Dew Point 61 °F
Humidity 92%
Rainfall 0.00 in
Snow Depth Not available.
6:17 AM 7:24 PM
Waning Crescent, 8% visible
SPECI KLAA 291328Z AUTO 29009KT 10SM OVC010 18/13 A3018 RMK AO2 T01780133 PWINO TSNO PNO $
Pressure 30.18 in
Visibility 10.0 miles
Clouds Overcast 1000 ft
Dew Point 61 °F
Humidity 92%
Rainfall 0.00 in
Snow Depth Not available.
6:17 AM 7:24 PM
Waning Crescent, 8% visible
SPECI KLAA 291328Z AUTO 29009KT 10SM OVC010 18/13 A3018 RMK AO2 T01780133 PWINO TSNO PNO $

10-Day Weather Forecast

Almanac

Astronomy

Aug. 29, 2016 Rise Set
Actual Time
Civil Twilight
Nautical Twilight
Astronomical Twilight
Moon
Length of Visible Light
Length of Day
Tomorrow will be .
, % of the Moon is Illuminated

Today's Extremes

State Highs State Lows

Community

WunderPhotos

Upload Photos

1,935,817 photos uploaded!

WunderBlog® & News

Nearby

Air Quality

  Air Quality AQ Index Pollutant
Not available.

Snow Depth

Station Depth Elevation

Earthquake Activity

City Distance Mag. Time & Date
Minimum magnitude displayed is 2.5.

Coastal Water Temperatures

Place Temperature

Stations

Nearby Weather Stations

Station Location Temp. Windchill Dew Point Humidity Wind Precip. Elev Updated Type
                   

Watches & Warnings

There are currently no watches in effect.